Time;durP1;ratioP1;P1;durP2;ratioP2;P2;SDS_P1;SDS_P2;PMS_P1;PMS_P2;Temp;Humidity;BMP_temperature;BMP_pressure;BME280_temperature;BME280_humidity;BME280_pressure;Samples;Min_cycle;Max_cycle;Signal;HPM_P1;HPM_P2
2023/07/10 00:01:10;;;;;;;11.27;4.95;;;;;;;;;;5024258;28;20029;-64
2023/07/10 00:03:55;;;;;;;6.68;4.20;;;;;;;;;;5027008;28;20033;-62
2023/07/10 00:06:40;;;;;;;9.55;4.53;;;;;;;;;;5027910;28;20112;-65
2023/07/10 00:09:26;;;;;;;7.75;4.03;;;;;;;;;;5027866;28;20033;-59
2023/07/10 00:12:12;;;;;;;9.38;4.78;;;;;;;;;;5020904;28;20512;-62
2023/07/10 00:14:58;;;;;;;6.07;3.60;;;;;;;;;;5029995;28;20021;-60
2023/07/10 00:17:45;;;;;;;10.30;4.50;;;;;;;;;;5025904;28;20017;-60
2023/07/10 00:20:30;;;;;;;8.98;4.38;;;;;;;;;;5019423;28;20572;-60
2023/07/10 00:23:16;;;;;;;8.13;3.95;;;;;;;;;;5026869;28;20022;-63
2023/07/10 00:26:01;;;;;;;7.60;3.78;;;;;;;;;;5026024;28;20033;-60
2023/07/10 00:28:48;;;;;;;9.68;5.10;;;;;;;;;;5028216;28;20036;-64
2023/07/10 00:31:33;;;;;;;8.75;5.07;;;;;;;;;;5026055;28;20506;-62
2023/07/10 00:34:25;;;;;;;7.38;4.47;;;;;;;;;;5027269;28;20037;-64
2023/07/10 00:37:10;;;;;;;7.68;4.28;;;;;;;;;;5014112;28;20021;-65
2023/07/10 00:39:55;;;;;;;6.72;3.95;;;;;;;;;;5026609;28;20512;-62
2023/07/10 00:42:41;;;;;;;5.35;3.30;;;;;;;;;;5027062;28;20205;-69
2023/07/10 00:45:26;;;;;;;6.28;3.63;;;;;;;;;;5025721;28;20468;-58
2023/07/10 00:48:26;;;;;;;7.25;4.13;;;;;;;;;;5027212;28;20091;-60
2023/07/10 00:51:14;;;;;;;10.35;4.05;;;;;;;;;;5037717;28;20029;-60
2023/07/10 00:54:01;;;;;;;7.97;4.15;;;;;;;;;;5026810;28;20128;-60
2023/07/10 00:56:46;;;;;;;6.47;3.65;;;;;;;;;;5028296;28;20041;-59
2023/07/10 00:59:35;;;;;;;8.02;4.20;;;;;;;;;;5017785;28;20033;-60
2023/07/10 01:02:22;;;;;;;9.10;4.93;;;;;;;;;;5032786;28;20025;-62
2023/07/10 01:05:07;;;;;;;7.63;4.22;;;;;;;;;;5022497;28;20033;-63
2023/07/10 01:07:55;;;;;;;9.35;4.05;;;;;;;;;;5029245;28;20404;-65
2023/07/10 01:10:40;;;;;;;7.93;4.10;;;;;;;;;;5030897;28;20025;-66
2023/07/10 01:13:26;;;;;;;8.45;4.03;;;;;;;;;;5036168;28;20048;-63
2023/07/10 01:16:11;;;;;;;7.78;4.28;;;;;;;;;;5044663;28;20018;-64
2023/07/10 01:18:57;;;;;;;5.18;3.30;;;;;;;;;;5030309;28;20527;-62
2023/07/10 01:21:43;;;;;;;6.80;3.67;;;;;;;;;;5018349;28;20143;-64
2023/07/10 01:24:28;;;;;;;7.03;4.30;;;;;;;;;;5025344;28;20575;-66
2023/07/10 01:27:13;;;;;;;7.15;3.90;;;;;;;;;;5033713;28;20135;-64
2023/07/10 01:30:06;;;;;;;7.18;4.03;;;;;;;;;;5028676;28;20083;-64
2023/07/10 01:32:52;;;;;;;6.05;3.85;;;;;;;;;;5028998;28;20045;-66
2023/07/10 01:35:37;;;;;;;8.18;4.05;;;;;;;;;;5020070;28;20117;-67
2023/07/10 01:38:48;;;;;;;7.43;4.40;;;;;;;;;;5015869;28;20029;-70
2023/07/10 01:41:39;;;;;;;7.78;4.72;;;;;;;;;;5017387;28;20481;-69
2023/07/10 01:44:29;;;;;;;7.72;3.97;;;;;;;;;;5029363;28;20036;-69
2023/07/10 01:47:15;;;;;;;7.47;4.10;;;;;;;;;;5028229;28;20022;-69
2023/07/10 01:50:00;;;;;;;6.85;3.75;;;;;;;;;;5016189;28;20635;-70
2023/07/10 01:52:45;;;;;;;10.48;4.40;;;;;;;;;;5029855;28;20068;-70
2023/07/10 01:55:34;;;;;;;6.15;3.75;;;;;;;;;;5029763;28;20092;-70
2023/07/10 01:58:19;;;;;;;9.10;3.78;;;;;;;;;;5023277;28;20048;-64
2023/07/10 02:01:04;;;;;;;9.77;4.45;;;;;;;;;;5027849;28;20029;-66
2023/07/10 02:03:50;;;;;;;6.07;3.42;;;;;;;;;;5029473;28;20473;-66
2023/07/10 02:06:36;;;;;;;7.60;3.90;;;;;;;;;;5017966;28;20029;-65
2023/07/10 02:09:26;;;;;;;7.80;4.30;;;;;;;;;;5028982;28;20112;-65
2023/07/10 02:12:11;;;;;;;6.60;3.92;;;;;;;;;;5035569;28;20069;-66
2023/07/10 02:14:56;;;;;;;10.93;4.82;;;;;;;;;;5027046;28;20041;-65
2023/07/10 02:17:41;;;;;;;6.40;3.45;;;;;;;;;;5015833;28;20052;-59
2023/07/10 02:20:27;;;;;;;7.53;4.47;;;;;;;;;;5028428;28;20029;-59
2023/07/10 02:23:12;;;;;;;8.15;4.47;;;;;;;;;;5014149;28;20032;-60
2023/07/10 02:25:57;;;;;;;10.88;4.07;;;;;;;;;;5029657;28;20029;-61
2023/07/10 02:28:43;;;;;;;6.57;3.92;;;;;;;;;;5031002;28;20025;-60
2023/07/10 02:31:28;;;;;;;7.68;4.15;;;;;;;;;;5028748;28;20037;-59
2023/07/10 02:34:13;;;;;;;6.93;3.95;;;;;;;;;;5028647;28;20034;-67
2023/07/10 02:36:58;;;;;;;6.40;3.85;;;;;;;;;;5027540;28;20033;-70
2023/07/10 02:39:44;;;;;;;6.25;4.40;;;;;;;;;;5025120;28;20325;-70
2023/07/10 02:42:29;;;;;;;11.52;4.70;;;;;;;;;;5028788;28;20030;-69
2023/07/10 02:45:14;;;;;;;6.90;4.05;;;;;;;;;;5027228;28;20029;-69
2023/07/10 02:47:59;;;;;;;7.10;4.38;;;;;;;;;;5028792;28;20387;-70
2023/07/10 02:50:45;;;;;;;8.10;4.40;;;;;;;;;;5029251;28;20029;-61
2023/07/10 02:53:31;;;;;;;11.90;4.82;;;;;;;;;;5025805;28;20108;-61
2023/07/10 02:56:16;;;;;;;7.80;4.25;;;;;;;;;;5028250;28;20025;-60
2023/07/10 02:59:02;;;;;;;7.35;3.92;;;;;;;;;;5035782;28;20444;-60
2023/07/10 03:01:47;;;;;;;7.95;4.07;;;;;;;;;;5015574;28;20013;-60
2023/07/10 03:04:32;;;;;;;8.45;3.83;;;;;;;;;;5028690;28;20109;-61
2023/07/10 03:07:17;;;;;;;7.03;4.50;;;;;;;;;;5028537;28;20018;-60
2023/07/10 03:10:03;;;;;;;6.53;4.20;;;;;;;;;;5025755;28;20730;-59
2023/07/10 03:12:48;;;;;;;7.68;4.22;;;;;;;;;;5023786;28;20037;-64
2023/07/10 03:15:33;;;;;;;9.02;4.80;;;;;;;;;;5027782;28;20472;-66
2023/07/10 03:18:18;;;;;;;6.80;4.30;;;;;;;;;;5027168;28;20457;-67
2023/07/10 03:21:04;;;;;;;10.43;4.30;;;;;;;;;;5017407;28;20022;-66
2023/07/10 03:23:50;;;;;;;7.40;4.10;;;;;;;;;;5026533;28;20132;-65
2023/07/10 03:26:35;;;;;;;7.72;4.35;;;;;;;;;;5025051;28;20044;-63
2023/07/10 03:29:20;;;;;;;6.53;4.13;;;;;;;;;;5035425;28;20025;-65
2023/07/10 03:32:06;;;;;;;9.77;4.38;;;;;;;;;;5027071;28;20026;-60
2023/07/10 03:34:51;;;;;;;8.80;4.93;;;;;;;;;;5025940;28;20037;-61
2023/07/10 03:37:37;;;;;;;8.30;4.60;;;;;;;;;;5013036;28;20528;-60
2023/07/10 03:40:22;;;;;;;7.72;4.40;;;;;;;;;;5027994;28;20080;-59
2023/07/10 03:43:07;;;;;;;7.78;4.65;;;;;;;;;;5019973;28;20351;-62
2023/07/10 03:45:53;;;;;;;9.52;4.18;;;;;;;;;;5026288;28;20036;-64
2023/07/10 03:48:38;;;;;;;7.35;4.53;;;;;;;;;;5026662;28;20025;-61
2023/07/10 03:51:23;;;;;;;11.90;5.70;;;;;;;;;;5027852;28;20426;-60
2023/07/10 03:54:09;;;;;;;8.85;4.35;;;;;;;;;;5027407;28;20127;-62
2023/07/10 03:56:54;;;;;;;11.20;5.85;;;;;;;;;;5026953;28;20030;-60
2023/07/10 03:59:39;;;;;;;6.82;4.40;;;;;;;;;;5017779;28;20075;-60
2023/07/10 04:02:24;;;;;;;8.63;4.40;;;;;;;;;;5026659;28;20547;-59
2023/07/10 04:05:09;;;;;;;6.90;4.50;;;;;;;;;;5027538;28;20065;-67
2023/07/10 04:07:55;;;;;;;10.95;4.30;;;;;;;;;;5025444;28;20037;-60
2023/07/10 04:10:40;;;;;;;8.13;4.75;;;;;;;;;;5039993;28;20852;-60
2023/07/10 04:13:26;;;;;;;9.18;4.57;;;;;;;;;;5026303;28;20033;-62
2023/07/10 04:16:15;;;;;;;6.57;4.30;;;;;;;;;;5017195;28;20067;-62
2023/07/10 04:19:01;;;;;;;7.80;4.30;;;;;;;;;;5027321;28;20254;-59
2023/07/10 04:21:46;;;;;;;8.85;5.43;;;;;;;;;;5022666;28;20043;-59
2023/07/10 04:24:31;;;;;;;11.63;5.15;;;;;;;;;;5024924;28;20089;-72
2023/07/10 04:27:16;;;;;;;10.02;4.85;;;;;;;;;;5027725;28;20534;-65
2023/07/10 04:30:02;;;;;;;9.52;5.18;;;;;;;;;;5026970;28;20107;-65
2023/07/10 04:32:47;;;;;;;8.15;4.70;;;;;;;;;;5017616;28;20034;-65
2023/07/10 04:35:32;;;;;;;7.95;4.75;;;;;;;;;;5027335;28;20423;-66
2023/07/10 04:38:17;;;;;;;7.95;4.50;;;;;;;;;;5028339;28;20043;-68
2023/07/10 04:41:04;;;;;;;7.13;4.78;;;;;;;;;;5029223;28;20030;-62
2023/07/10 04:43:49;;;;;;;8.57;4.45;;;;;;;;;;5028062;28;20056;-60
2023/07/10 04:46:35;;;;;;;8.88;4.82;;;;;;;;;;5030271;28;20029;-61
2023/07/10 04:49:20;;;;;;;9.15;4.80;;;;;;;;;;5027815;28;20453;-62
2023/07/10 04:52:06;;;;;;;10.45;5.65;;;;;;;;;;5028740;28;20029;-61
2023/07/10 04:54:51;;;;;;;7.43;3.95;;;;;;;;;;5018641;28;20113;-61
2023/07/10 04:57:36;;;;;;;8.68;4.93;;;;;;;;;;5026178;28;20032;-59
2023/07/10 05:00:22;;;;;;;7.80;4.40;;;;;;;;;;5026824;28;20044;-59
2023/07/10 05:03:07;;;;;;;7.72;4.75;;;;;;;;;;5026638;28;20080;-69
2023/07/10 05:05:57;;;;;;;11.18;5.30;;;;;;;;;;5028596;28;20330;-70
2023/07/10 05:08:42;;;;;;;10.07;5.25;;;;;;;;;;5030799;28;20392;-70
2023/07/10 05:11:28;;;;;;;9.10;5.00;;;;;;;;;;5032624;28;20025;-70
2023/07/10 05:14:13;;;;;;;9.00;5.38;;;;;;;;;;5029503;28;20027;-67
2023/07/10 05:16:59;;;;;;;9.80;4.78;;;;;;;;;;5027434;28;20068;-69
2023/07/10 05:19:44;;;;;;;10.50;4.75;;;;;;;;;;5025227;28;20053;-60
2023/07/10 05:22:29;;;;;;;7.63;4.55;;;;;;;;;;5019849;28;20025;-58
2023/07/10 05:25:14;;;;;;;10.90;4.43;;;;;;;;;;5024999;28;20585;-57
2023/07/10 05:28:01;;;;;;;10.60;5.20;;;;;;;;;;5033192;28;20113;-59
2023/07/10 05:30:46;;;;;;;12.60;5.57;;;;;;;;;;5021963;28;20029;-59
2023/07/10 05:33:32;;;;;;;11.18;5.60;;;;;;;;;;5019257;28;20489;-61
2023/07/10 05:36:17;;;;;;;9.27;4.68;;;;;;;;;;5024680;28;20052;-63
2023/07/10 05:39:03;;;;;;;7.90;4.60;;;;;;;;;;5024889;28;20047;-76
2023/07/10 05:41:48;;;;;;;8.57;4.07;;;;;;;;;;5012302;28;20021;-75
2023/07/10 05:44:33;;;;;;;8.48;5.32;;;;;;;;;;5030198;28;20392;-75
2023/07/10 05:47:18;;;;;;;6.93;4.32;;;;;;;;;;5022538;28;20021;-76
2023/07/10 05:50:04;;;;;;;9.23;4.75;;;;;;;;;;5030489;28;20223;-76
2023/07/10 05:52:49;;;;;;;9.05;5.32;;;;;;;;;;5029847;28;20040;-76
2023/07/10 05:55:34;;;;;;;8.57;4.43;;;;;;;;;;5016175;28;20013;-72
2023/07/10 05:58:21;;;;;;;6.47;4.20;;;;;;;;;;5033333;28;20030;-76
2023/07/10 06:01:06;;;;;;;12.15;5.10;;;;;;;;;;5028522;28;20476;-76
2023/07/10 06:03:51;;;;;;;13.35;4.53;;;;;;;;;;5028662;28;20110;-78
2023/07/10 06:06:36;;;;;;;9.80;4.68;;;;;;;;;;5029866;28;20025;-76
2023/07/10 06:09:22;;;;;;;11.00;4.32;;;;;;;;;;5029866;28;20126;-75
2023/07/10 06:12:08;;;;;;;12.43;4.88;;;;;;;;;;5017025;28;20048;-77
2023/07/10 06:14:54;;;;;;;9.85;4.90;;;;;;;;;;5016252;28;20032;-72
2023/07/10 06:17:39;;;;;;;12.23;5.18;;;;;;;;;;5029613;28;20059;-77
2023/07/10 06:20:24;;;;;;;6.75;3.90;;;;;;;;;;5029490;28;20128;-76
2023/07/10 06:23:09;;;;;;;7.63;4.53;;;;;;;;;;5009785;28;20496;-77
2023/07/10 06:25:55;;;;;;;10.93;5.28;;;;;;;;;;5021956;28;20052;-76
2023/07/10 06:28:40;;;;;;;9.43;5.15;;;;;;;;;;5029459;28;20332;-77
2023/07/10 06:31:25;;;;;;;6.70;3.92;;;;;;;;;;5029200;28;20036;-75
2023/07/10 06:34:11;;;;;;;7.32;4.20;;;;;;;;;;5015502;28;20037;-75
2023/07/10 06:36:56;;;;;;;14.10;4.80;;;;;;;;;;5015102;28;20497;-76
2023/07/10 06:39:41;;;;;;;9.65;4.90;;;;;;;;;;5020386;28;20072;-77
2023/07/10 06:42:27;;;;;;;12.50;5.15;;;;;;;;;;5014939;28;20028;-75
2023/07/10 06:45:12;;;;;;;10.50;4.65;;;;;;;;;;5015108;28;20075;-76
2023/07/10 06:47:57;;;;;;;9.25;4.40;;;;;;;;;;5025661;28;20057;-75
2023/07/10 06:50:50;;;;;;;6.57;4.25;;;;;;;;;;5022592;28;20123;-74
2023/07/10 06:53:35;;;;;;;9.93;5.00;;;;;;;;;;5019645;28;20273;-73
2023/07/10 06:56:20;;;;;;;13.50;4.93;;;;;;;;;;5023353;28;20091;-74
2023/07/10 06:59:05;;;;;;;10.43;4.82;;;;;;;;;;5010320;28;20113;-74
2023/07/10 07:01:51;;;;;;;8.93;4.07;;;;;;;;;;5028696;28;20072;-76
2023/07/10 07:04:36;;;;;;;8.65;3.35;;;;;;;;;;5014962;28;20050;-75
2023/07/10 07:07:21;;;;;;;8.57;3.95;;;;;;;;;;5013204;28;20419;-74
2023/07/10 07:10:08;;;;;;;8.32;4.28;;;;;;;;;;5025287;28;20037;-73
2023/07/10 07:12:53;;;;;;;9.88;3.92;;;;;;;;;;5018330;28;20033;-78
2023/07/10 07:15:38;;;;;;;8.32;4.38;;;;;;;;;;5016519;28;20025;-79
2023/07/10 07:18:24;;;;;;;6.75;3.95;;;;;;;;;;5029393;28;20269;-78
2023/07/10 07:21:13;;;;;;;8.90;4.15;;;;;;;;;;5014507;28;20057;-79
2023/07/10 07:23:58;;;;;;;;;;;;;;;;;;5015575;28;20045;-79
2023/07/10 07:26:43;;;;;;;6.70;3.50;;;;;;;;;;5013690;28;20039;-76
2023/07/10 07:29:28;;;;;;;9.13;4.47;;;;;;;;;;5024788;28;20392;-72
2023/07/10 07:32:14;;;;;;;6.00;4.00;;;;;;;;;;5027552;28;20033;-71
2023/07/10 07:34:59;;;;;;;7.78;3.80;;;;;;;;;;5027137;28;20073;-70
2023/07/10 07:37:45;;;;;;;9.60;3.80;;;;;;;;;;5011675;28;20053;-75
2023/07/10 07:40:30;;;;;;;6.95;3.83;;;;;;;;;;5023731;28;20032;-71
2023/07/10 07:43:16;;;;;;;8.27;3.95;;;;;;;;;;5014431;28;20144;-72
2023/07/10 07:46:02;;;;;;;8.15;4.32;;;;;;;;;;5029765;28;20539;-77
2023/07/10 07:48:47;;;;;;;6.43;3.72;;;;;;;;;;5032980;28;20026;-73
2023/07/10 07:51:33;;;;;;;6.28;3.90;;;;;;;;;;5024953;28;20096;-73
2023/07/10 07:54:18;;;;;;;10.52;4.22;;;;;;;;;;5027559;28;20037;-73
2023/07/10 07:57:03;;;;;;;5.60;3.33;;;;;;;;;;5016773;28;20033;-73
2023/07/10 07:59:49;;;;;;;8.93;4.30;;;;;;;;;;5014744;28;20036;-73
2023/07/10 08:02:34;;;;;;;9.07;4.07;;;;;;;;;;5013520;28;20022;-73
2023/07/10 08:05:19;;;;;;;9.35;3.30;;;;;;;;;;5012660;28;20398;-72
2023/07/10 08:08:05;;;;;;;6.68;3.88;;;;;;;;;;4999700;28;20088;-76
2023/07/10 08:10:51;;;;;;;5.68;3.65;;;;;;;;;;5026163;28;20040;-77
2023/07/10 08:13:36;;;;;;;7.38;3.22;;;;;;;;;;5024146;28;20033;-75
2023/07/10 08:16:21;;;;;;;7.40;3.92;;;;;;;;;;5010338;28;20033;-74
2023/07/10 08:19:06;;;;;;;8.13;4.10;;;;;;;;;;5010864;28;20088;-77
2023/07/10 08:21:54;;;;;;;5.40;3.75;;;;;;;;;;5024390;28;20033;-72
2023/07/10 08:24:40;;;;;;;7.18;3.80;;;;;;;;;;5026808;28;20111;-81
2023/07/10 08:27:25;;;;;;;8.13;3.50;;;;;;;;;;5019830;28;20087;-83
2023/07/10 08:30:11;;;;;;;8.13;4.18;;;;;;;;;;5018479;28;20022;-83
2023/07/10 08:32:56;;;;;;;6.18;4.35;;;;;;;;;;5027833;28;20033;-81
2023/07/10 08:35:42;;;;;;;9.25;4.15;;;;;;;;;;5013196;28;20813;-83
2023/07/10 08:38:27;;;;;;;6.45;4.25;;;;;;;;;;5014030;28;20616;-83
2023/07/10 08:41:19;;;;;;;7.40;3.92;;;;;;;;;;5013646;28;20021;-77
2023/07/10 08:44:08;;;;;;;6.65;4.03;;;;;;;;;;5013648;28;20028;-77
2023/07/10 08:46:53;;;;;;;6.53;3.90;;;;;;;;;;5032270;28;20040;-77
2023/07/10 08:49:41;;;;;;;6.97;4.20;;;;;;;;;;5028746;28;20057;-77
2023/07/10 08:52:43;;;;;;;7.60;3.78;;;;;;;;;;5025872;28;20301;-78
2023/07/10 08:55:48;;;;;;;5.78;3.47;;;;;;;;;;5027363;28;20067;-77
2023/07/10 08:58:34;;;;;;;5.45;3.80;;;;;;;;;;5027875;28;20544;-77
2023/07/10 09:01:31;;;;;;;6.68;3.65;;;;;;;;;;5013198;28;20448;-74
2023/07/10 09:04:17;;;;;;;4.10;3.13;;;;;;;;;;5026213;28;20044;-74
2023/07/10 09:07:03;;;;;;;8.13;4.20;;;;;;;;;;5026301;28;20037;-74
2023/07/10 09:09:51;;;;;;;7.15;4.20;;;;;;;;;;5013496;28;20381;-75
2023/07/10 09:12:39;;;;;;;8.25;4.22;;;;;;;;;;5031094;28;20365;-76
2023/07/10 09:15:28;;;;;;;9.23;3.87;;;;;;;;;;5026416;28;20469;-76
2023/07/10 09:18:36;;;;;;;12.13;4.25;;;;;;;;;;5008188;28;20105;-73
2023/07/10 09:21:22;;;;;;;6.90;4.10;;;;;;;;;;5028958;28;20022;-76
2023/07/10 09:24:28;;;;;;;7.20;3.80;;;;;;;;;;5012997;28;20061;-76
2023/07/10 09:27:14;;;;;;;8.80;4.03;;;;;;;;;;5035052;28;20021;-76
2023/07/10 09:29:59;;;;;;;7.50;4.07;;;;;;;;;;5037379;28;20495;-76
2023/07/10 09:32:45;;;;;;;8.80;4.50;;;;;;;;;;5016787;28;20116;-75
2023/07/10 09:35:30;;;;;;;10.50;4.90;;;;;;;;;;5016325;28;20146;-76
2023/07/10 09:38:18;;;;;;;9.90;4.63;;;;;;;;;;5016319;28;20025;-77
2023/07/10 09:41:09;;;;;;;8.73;4.63;;;;;;;;;;5030638;28;20551;-75
2023/07/10 09:43:56;;;;;;;10.48;4.53;;;;;;;;;;5030735;28;20420;-76
2023/07/10 09:46:41;;;;;;;7.05;4.13;;;;;;;;;;5017136;28;20029;-76
2023/07/10 09:49:31;;;;;;;10.73;4.65;;;;;;;;;;5029973;28;20100;-77
2023/07/10 09:52:16;;;;;;;8.52;4.80;;;;;;;;;;5031043;28;20033;-76
2023/07/10 09:55:11;;;;;;;9.00;4.70;;;;;;;;;;5030121;28;20036;-73
2023/07/10 09:58:01;;;;;;;7.55;4.05;;;;;;;;;;5034605;28;20083;-74
2023/07/10 10:00:48;;;;;;;6.65;4.50;;;;;;;;;;5030086;28;20037;-75
2023/07/10 10:03:38;;;;;;;7.75;4.75;;;;;;;;;;5029939;28;20052;-75
2023/07/10 10:06:25;;;;;;;8.70;4.53;;;;;;;;;;5028087;28;20033;-74
2023/07/10 10:09:29;;;;;;;9.98;4.30;;;;;;;;;;5030100;28;20026;-75
2023/07/10 10:12:14;;;;;;;8.82;4.57;;;;;;;;;;5030062;28;20109;-79
2023/07/10 10:15:06;;;;;;;6.95;4.32;;;;;;;;;;5029593;28;20032;-74
2023/07/10 10:17:53;;;;;;;8.05;3.70;;;;;;;;;;5015013;28;20033;-75
2023/07/10 10:20:38;;;;;;;9.88;4.60;;;;;;;;;;5012622;28;20546;-75
2023/07/10 10:23:34;;;;;;;6.80;4.05;;;;;;;;;;5027381;28;20549;-73
2023/07/10 10:26:27;;;;;;;9.65;4.50;;;;;;;;;;5029564;28;20040;-75
2023/07/10 10:29:19;;;;;;;8.73;4.25;;;;;;;;;;5015084;28;20036;-75
2023/07/10 10:32:12;;;;;;;8.38;4.55;;;;;;;;;;5029482;28;20037;-77
2023/07/10 10:35:01;;;;;;;6.93;4.07;;;;;;;;;;5027123;28;20095;-75
2023/07/10 10:37:49;;;;;;;7.65;4.07;;;;;;;;;;5026930;28;20021;-74
2023/07/10 10:40:45;;;;;;;7.10;3.90;;;;;;;;;;5029292;28;20038;-74
2023/07/10 10:43:30;;;;;;;7.15;4.47;;;;;;;;;;5029094;28;20306;-75
2023/07/10 10:46:24;;;;;;;12.10;4.82;;;;;;;;;;5032741;28;20111;-74
2023/07/10 10:49:10;;;;;;;8.52;4.50;;;;;;;;;;5015203;28;20025;-75
2023/07/10 10:51:55;;;;;;;11.65;5.20;;;;;;;;;;5028898;28;20013;-80
2023/07/10 10:54:59;;;;;;;7.05;3.97;;;;;;;;;;5015854;28;20080;-78
2023/07/10 10:58:07;;;;;;;7.90;4.32;;;;;;;;;;5032751;28;20392;-79
2023/07/10 11:00:52;;;;;;;;;;;;;;;;;;5029524;28;20026;-78
2023/07/10 11:03:37;;;;;;;9.07;5.00;;;;;;;;;;5026644;28;19913;-79
2023/07/10 11:06:26;;;;;;;6.22;4.45;;;;;;;;;;5028429;28;20021;-79
2023/07/10 11:09:17;;;;;;;9.75;4.63;;;;;;;;;;5029045;28;20411;-74
2023/07/10 11:12:03;;;;;;;8.35;4.25;;;;;;;;;;5032160;28;20141;-73
2023/07/10 11:14:50;;;;;;;8.20;4.70;;;;;;;;;;5028227;28;20140;-71
2023/07/10 11:17:36;;;;;;;8.25;4.22;;;;;;;;;;5012320;28;20055;-72
2023/07/10 11:20:23;;;;;;;10.15;4.68;;;;;;;;;;5027871;28;20017;-71
2023/07/10 11:23:27;;;;;;;9.57;4.47;;;;;;;;;;5027268;28;20025;-71
2023/07/10 11:26:17;;;;;;;8.68;4.10;;;;;;;;;;5018903;28;20112;-73
2023/07/10 11:29:22;;;;;;;7.25;4.30;;;;;;;;;;5042197;28;20040;-76
2023/07/10 11:32:16;;;;;;;7.10;4.10;;;;;;;;;;5029738;28;20079;-75
2023/07/10 11:35:13;;;;;;;6.65;4.40;;;;;;;;;;5028278;28;20068;-75
2023/07/10 11:38:01;;;;;;;5.80;3.90;;;;;;;;;;5027751;28;20473;-76
2023/07/10 11:40:47;;;;;;;7.82;3.88;;;;;;;;;;5027989;28;20500;-75
2023/07/10 11:43:39;;;;;;;8.18;4.53;;;;;;;;;;5027930;28;20021;-75
2023/07/10 11:46:25;;;;;;;6.80;4.00;;;;;;;;;;5033069;28;20060;-70
2023/07/10 11:49:15;;;;;;;9.18;4.82;;;;;;;;;;5011621;28;20033;-70
2023/07/10 11:52:13;;;;;;;6.82;3.83;;;;;;;;;;5027631;28;20092;-70
2023/07/10 11:55:00;;;;;;;8.95;3.58;;;;;;;;;;5017577;28;20099;-71
2023/07/10 11:58:05;;;;;;;13.35;5.60;;;;;;;;;;5032346;28;20013;-71
2023/07/10 12:00:52;;;;;;;6.00;4.22;;;;;;;;;;5025458;28;20045;-71
2023/07/10 12:03:38;;;;;;;7.90;4.28;;;;;;;;;;5026414;28;20022;-78
2023/07/10 12:06:24;;;;;;;6.22;3.85;;;;;;;;;;5027835;28;20028;-74
2023/07/10 12:09:09;;;;;;;6.30;3.47;;;;;;;;;;5027633;28;20029;-73
2023/07/10 12:11:55;;;;;;;5.50;3.83;;;;;;;;;;5031440;28;20037;-73
2023/07/10 12:14:41;;;;;;;7.60;4.05;;;;;;;;;;5023963;28;20353;-73
2023/07/10 12:17:27;;;;;;;5.15;3.72;;;;;;;;;;5027083;28;20492;-72
2023/07/10 12:20:24;;;;;;;6.68;3.50;;;;;;;;;;5027637;28;20017;-73
2023/07/10 12:23:11;;;;;;;6.07;4.05;;;;;;;;;;5020902;28;20327;-75
2023/07/10 12:25:57;;;;;;;7.15;3.28;;;;;;;;;;5028215;28;20087;-69
2023/07/10 12:28:43;;;;;;;7.38;4.13;;;;;;;;;;5027289;28;20025;-70
2023/07/10 12:31:28;;;;;;;6.43;3.38;;;;;;;;;;5026979;28;20095;-70
2023/07/10 12:34:19;;;;;;;4.22;3.22;;;;;;;;;;5026662;28;20037;-72
2023/07/10 12:37:08;;;;;;;6.30;3.42;;;;;;;;;;5027446;28;20026;-70
2023/07/10 12:39:53;;;;;;;6.93;3.55;;;;;;;;;;5027612;28;20057;-72
2023/07/10 12:42:38;;;;;;;4.70;3.15;;;;;;;;;;5026254;28;20240;-75
2023/07/10 12:45:27;;;;;;;6.20;3.80;;;;;;;;;;5027278;28;20619;-74
2023/07/10 12:48:15;;;;;;;5.15;3.33;;;;;;;;;;5037464;28;20056;-75
2023/07/10 12:51:01;;;;;;;5.57;3.72;;;;;;;;;;5027608;28;20087;-75
2023/07/10 12:53:46;;;;;;;8.70;4.03;;;;;;;;;;5029080;28;20033;-74
2023/07/10 12:56:32;;;;;;;6.50;4.13;;;;;;;;;;5029837;28;20030;-77
2023/07/10 12:59:18;;;;;;;5.45;3.40;;;;;;;;;;5033163;28;20040;-69
2023/07/10 13:02:12;;;;;;;4.75;3.42;;;;;;;;;;5031077;28;20032;-73
2023/07/10 13:04:58;;;;;;;9.73;4.50;;;;;;;;;;5031446;28;20511;-72
2023/07/10 13:07:44;;;;;;;6.38;3.42;;;;;;;;;;5030467;28;20021;-72
2023/07/10 13:10:39;;;;;;;8.27;3.38;;;;;;;;;;5029064;28;20021;-72
2023/07/10 13:13:25;;;;;;;7.38;3.65;;;;;;;;;;5027004;28;20088;-70
2023/07/10 13:16:18;;;;;;;4.97;3.65;;;;;;;;;;5031460;28;20032;-81
2023/07/10 13:19:03;;;;;;;4.15;3.30;;;;;;;;;;5031227;28;20033;-70
2023/07/10 13:21:49;;;;;;;6.40;3.45;;;;;;;;;;5030853;28;20104;-70
2023/07/10 13:24:34;;;;;;;5.50;3.63;;;;;;;;;;5029279;28;20068;-70
2023/07/10 13:27:20;;;;;;;4.50;3.45;;;;;;;;;;5035484;28;20029;-70
2023/07/10 13:30:14;;;;;;;6.68;3.50;;;;;;;;;;5044790;28;20033;-72
2023/07/10 13:33:00;;;;;;;4.68;3.80;;;;;;;;;;5028398;28;20128;-69
2023/07/10 13:35:47;;;;;;;7.93;4.15;;;;;;;;;;5030477;28;20045;-75
2023/07/10 13:38:32;;;;;;;5.15;3.30;;;;;;;;;;5030765;28;20095;-73
2023/07/10 13:41:18;;;;;;;6.28;3.47;;;;;;;;;;5009943;28;20036;-72
2023/07/10 13:44:04;;;;;;;5.57;3.83;;;;;;;;;;5030198;28;20026;-73
2023/07/10 13:46:49;;;;;;;7.45;3.83;;;;;;;;;;5019638;28;20040;-74
2023/07/10 13:49:35;;;;;;;6.20;3.63;;;;;;;;;;5030358;28;20017;-73
2023/07/10 13:52:25;;;;;;;5.70;3.58;;;;;;;;;;5016500;28;20645;-74
2023/07/10 13:55:13;;;;;;;4.60;3.22;;;;;;;;;;5029142;28;20037;-72
2023/07/10 13:57:59;;;;;;;6.18;3.38;;;;;;;;;;5033375;28;20030;-76
2023/07/10 14:00:45;;;;;;;5.60;3.30;;;;;;;;;;5029171;28;20452;-75
2023/07/10 14:03:31;;;;;;;6.43;3.47;;;;;;;;;;5029215;28;20029;-75
2023/07/10 14:06:19;;;;;;;7.47;4.13;;;;;;;;;;5028932;28;20037;-78
2023/07/10 14:09:14;;;;;;;8.00;4.63;;;;;;;;;;5030014;28;20100;-76
2023/07/10 14:12:00;;;;;;;5.78;3.95;;;;;;;;;;5033684;28;20426;-79
2023/07/10 14:14:45;;;;;;;4.45;3.10;;;;;;;;;;5016095;28;20034;-70
2023/07/10 14:17:34;;;;;;;5.43;3.45;;;;;;;;;;5030036;28;20056;-71
2023/07/10 14:20:20;;;;;;;6.25;3.88;;;;;;;;;;5029978;28;20032;-72
2023/07/10 14:23:16;;;;;;;6.32;3.92;;;;;;;;;;5032032;28;20504;-69
2023/07/10 14:26:02;;;;;;;7.82;3.70;;;;;;;;;;5031412;28;20415;-72
2023/07/10 14:28:47;;;;;;;4.55;3.67;;;;;;;;;;5023931;28;20461;-70
2023/07/10 14:31:32;;;;;;;8.55;4.55;;;;;;;;;;5016918;28;20022;-82
2023/07/10 14:34:17;;;;;;;8.25;4.40;;;;;;;;;;5028399;28;20042;-71
2023/07/10 14:37:03;;;;;;;12.13;3.78;;;;;;;;;;5029057;28;20030;-70
2023/07/10 14:39:49;;;;;;;5.00;3.65;;;;;;;;;;5029810;28;20033;-72
2023/07/10 14:42:34;;;;;;;9.00;4.85;;;;;;;;;;5028683;28;20033;-71
2023/07/10 14:45:19;;;;;;;4.88;3.53;;;;;;;;;;5027681;28;20033;-71
2023/07/10 14:48:04;;;;;;;5.43;3.42;;;;;;;;;;5028892;28;20124;-75
2023/07/10 14:50:50;;;;;;;10.52;4.47;;;;;;;;;;5014571;28;20167;-71
2023/07/10 14:53:35;;;;;;;7.47;4.25;;;;;;;;;;5016054;28;20124;-70
2023/07/10 14:56:21;;;;;;;6.22;4.00;;;;;;;;;;5027798;28;20026;-71
2023/07/10 14:59:10;;;;;;;6.07;3.72;;;;;;;;;;5038795;28;20279;-69
2023/07/10 15:01:55;;;;;;;9.52;4.38;;;;;;;;;;5028713;28;20461;-71
2023/07/10 15:04:40;;;;;;;4.13;3.30;;;;;;;;;;5027567;28;20147;-71
2023/07/10 15:07:26;;;;;;;6.00;3.60;;;;;;;;;;5028868;28;20025;-80
2023/07/10 15:10:21;;;;;;;6.93;3.75;;;;;;;;;;5014834;28;20029;-79
2023/07/10 15:13:08;;;;;;;5.10;3.65;;;;;;;;;;5031885;28;20033;-79
2023/07/10 15:15:54;;;;;;;6.93;4.00;;;;;;;;;;5015266;28;20421;-80
2023/07/10 15:18:39;;;;;;;7.60;3.97;;;;;;;;;;5028015;28;20056;-79
2023/07/10 15:21:25;;;;;;;7.05;4.30;;;;;;;;;;5029304;28;20389;-80
2023/07/10 15:24:20;;;;;;;6.72;4.18;;;;;;;;;;5021710;28;20485;-79
2023/07/10 15:27:05;;;;;;;7.03;3.45;;;;;;;;;;5030726;28;20167;-80
2023/07/10 15:29:50;;;;;;;7.97;4.15;;;;;;;;;;5033974;28;20040;-70
2023/07/10 15:32:37;;;;;;;7.32;4.80;;;;;;;;;;5028737;28;20034;-69
2023/07/10 15:35:23;;;;;;;6.68;3.90;;;;;;;;;;5027586;28;20025;-71
2023/07/10 15:38:12;;;;;;;8.80;3.85;;;;;;;;;;5019227;28;20026;-71
2023/07/10 15:40:58;;;;;;;6.85;4.05;;;;;;;;;;5028223;28;20443;-69
2023/07/10 15:43:45;;;;;;;5.90;3.72;;;;;;;;;;5027644;28;20028;-73
2023/07/10 15:46:30;;;;;;;6.32;3.80;;;;;;;;;;5020603;28;20028;-70
2023/07/10 15:49:23;;;;;;;4.70;3.17;;;;;;;;;;5030271;28;20025;-71
2023/07/10 15:52:17;;;;;;;5.65;3.60;;;;;;;;;;5027465;28;20709;-71
2023/07/10 15:55:21;;;;;;;6.75;3.67;;;;;;;;;;5036006;28;20504;-71
2023/07/10 15:58:15;;;;;;;8.25;4.53;;;;;;;;;;5030705;28;20045;-71
2023/07/10 16:01:00;;;;;;;5.93;3.80;;;;;;;;;;5027013;28;20036;-70
2023/07/10 16:03:48;;;;;;;6.20;4.18;;;;;;;;;;5012999;28;20026;-79
2023/07/10 16:06:33;;;;;;;6.82;4.65;;;;;;;;;;5040369;28;20465;-84
2023/07/10 16:09:18;;;;;;;6.10;3.30;;;;;;;;;;5029586;28;20112;-79
2023/07/10 16:12:04;;;;;;;6.28;3.60;;;;;;;;;;5041272;28;20036;-82
2023/07/10 16:14:49;;;;;;;6.00;3.75;;;;;;;;;;5040163;28;20029;-80
2023/07/10 16:17:34;;;;;;;6.75;3.72;;;;;;;;;;5012318;28;20395;-78
2023/07/10 16:20:22;;;;;;;8.52;3.97;;;;;;;;;;5024744;28;20079;-70
2023/07/10 16:23:08;;;;;;;8.00;4.57;;;;;;;;;;5025518;28;20037;-70
2023/07/10 16:25:53;;;;;;;7.93;3.60;;;;;;;;;;5025106;28;20352;-70
2023/07/10 16:28:38;;;;;;;6.57;4.03;;;;;;;;;;5025151;28;20040;-70
2023/07/10 16:31:25;;;;;;;6.05;3.67;;;;;;;;;;5028214;28;20025;-70
2023/07/10 16:34:16;;;;;;;5.43;3.53;;;;;;;;;;5026549;28;20247;-69
2023/07/10 16:37:09;;;;;;;5.15;4.20;;;;;;;;;;5027039;28;20029;-69
2023/07/10 16:39:54;;;;;;;9.60;4.15;;;;;;;;;;5023215;28;20629;-71
2023/07/10 16:42:40;;;;;;;8.23;4.32;;;;;;;;;;5040350;28;20029;-80